tititudorancea.com
Station Historical Data
 
Daily Summary for September 25, 2016 Units:  Metric    English   Both
« Previous Day
Next Day »
Daily Weekly Monthly Yearly Custom
  Current: High: Low: Average:
Temperature: 11.9 °C 11.9 °C 5.7 °C 7.8 °C
Dew Point: 4.7 °C 9.2 °C 4.1 °C 5.9 °C
Humidity: 61 % 98 % 61 % 88 %
Wind Speed: 8.7 km/h 15.8 km/h 0 km/h 3.7 km/h
Wind Gust: 30.6 km/h 30.6 km/h - -
Wind:WSW - - WSW
Pressure: 1018.8 hPa 1019.2 hPa 1014.4 hPa -
Precipitation: 0.25 mm      
Historical Graphs
 
 
Ararat weather Find more about Weather in Ararat, AU


 



 


Tabular Data for September 25, 2016
Time Temperature Dew Point Pressure Wind Wind Speed Wind Gust Humidity Rainfall Rate (Hourly)
00:02 9.4 °C 9.1 °C 1014.4 hPa SW 7.2 km/h 15.8 km/h 98 % 0 mm
00:07 9.5 °C 9.2 °C 1014.4 hPa SW 2.6 km/h 15.8 km/h 98 % 0 mm
00:12 9.5 °C 9.2 °C 1014.4 hPa SW 1.1 km/h 13.4 km/h 98 % 0 mm
00:17 9.5 °C 9.2 °C 1014.4 hPa SW 6.1 km/h 13.4 km/h 98 % 0 mm
00:22 9.5 °C 9.2 °C 1014.4 hPa SW 2.6 km/h 13.4 km/h 98 % 0 mm
00:27 9.5 °C 9.1 °C 1014.4 hPa WSW 11.1 km/h 18.3 km/h 97 % 0 mm
00:31 9 °C 8.4 °C 1014.4 hPa WSW 7.2 km/h 18.3 km/h 96 % 0 mm
00:32 9.4 °C 8.9 °C 1014.4 hPa SW 3.5 km/h 18.3 km/h 97 % 0 mm
00:33 9 °C 8.3 °C 1014.4 hPa WSW 7.2 km/h 18.3 km/h 95 % 0 mm
00:34 8.9 °C 8.2 °C 1014.4 hPa WSW 6.1 km/h 18.3 km/h 95 % 0 mm
00:35 8.9 °C 8.2 °C 1014.4 hPa WSW 2.6 km/h 18.3 km/h 95 % 0 mm
00:37 9.3 °C 8.8 °C 1014.4 hPa SSW 6.1 km/h 17.2 km/h 97 % 0 mm
00:39 8.8 °C 8.1 °C 1014.8 hPa West 1.1 km/h 14.8 km/h 95 % 0 mm
00:40 8.8 °C 8.1 °C 1014.8 hPa West 5 km/h 14.8 km/h 95 % 0 mm
00:41 8.8 °C 8.1 °C 1014.8 hPa West 6.1 km/h 14.8 km/h 95 % 0 mm
00:42 9.2 °C 8.8 °C 1014.4 hPa WSW 3.5 km/h 15.8 km/h 97 % 0 mm
00:43 8.7 °C 7.9 °C 1014.4 hPa West 6.1 km/h 15.8 km/h 95 % 0 mm
00:44 8.7 °C 7.9 °C 1014.8 hPa West 3.5 km/h 15.8 km/h 95 % 0 mm
00:45 8.7 °C 7.9 °C 1014.4 hPa West 6.1 km/h 15.8 km/h 95 % 0 mm
00:46 8.7 °C 7.9 °C 1014.8 hPa West 7.2 km/h 15.8 km/h 95 % 0 mm
00:47 9.1 °C 8.5 °C 1014.4 hPa West 6.1 km/h 18.3 km/h 96 % 0 mm
00:52 9 °C 8.4 °C 1014.4 hPa WSW 6.1 km/h 18.3 km/h 96 % 0 mm
00:57 8.9 °C 8.2 °C 1014.4 hPa WSW 2.6 km/h 18.3 km/h 95 % 0 mm
01:02 8.8 °C 8.1 °C 1014.8 hPa West 1.1 km/h 14.8 km/h 95 % 0 mm
01:07 8.7 °C 7.9 °C 1014.4 hPa West 6.1 km/h 15.8 km/h 95 % 0 mm
01:12 8.6 °C 7.7 °C 1014.8 hPa WSW 7.2 km/h 15.8 km/h 94 % 0 mm
01:17 8.6 °C 7.7 °C 1014.8 hPa WSW 12.2 km/h 20.9 km/h 94 % 0 mm
01:22 8.5 °C 7.6 °C 1014.8 hPa WSW 3.5 km/h 20.9 km/h 94 % 0 mm
01:27 8.5 °C 7.6 °C 1014.8 hPa SW 3.5 km/h 17.2 km/h 94 % 0 mm
01:32 8.4 °C 7.5 °C 1014.8 hPa SW 9.7 km/h 15.8 km/h 94 % 0 mm
01:37 8.4 °C 7.5 °C 1014.8 hPa WSW 6.1 km/h 15.8 km/h 94 % 0 mm
01:42 8.3 °C 7.4 °C 1014.8 hPa WSW 3.5 km/h 15.8 km/h 94 % 0 mm
01:47 8.2 °C 7.5 °C 1014.8 hPa SW 3.5 km/h 18.3 km/h 95 % 0 mm
01:52 8.2 °C 7.5 °C 1014.8 hPa SW 7.2 km/h 18.3 km/h 95 % 0 mm
01:57 8.1 °C 7.4 °C 1014.8 hPa WSW 9.7 km/h 15.8 km/h 95 % 0 mm
02:02 8.1 °C 7.4 °C 1014.8 hPa SW 5 km/h 15.8 km/h 95 % 0 mm
02:07 8.1 °C 7.3 °C 1015.1 hPa SW 5 km/h 15.8 km/h 95 % 0 mm
02:12 8.1 °C 7.3 °C 1015.1 hPa SSW 2.6 km/h 13.4 km/h 95 % 0 mm
02:17 8.1 °C 7.4 °C 1014.8 hPa SW 1.1 km/h 9.7 km/h 95 % 0 mm
02:22 8.1 °C 7.6 °C 1015.1 hPa SSW 3.5 km/h 11.1 km/h 96 % 0 mm
02:27 8.2 °C 7.5 °C 1015.1 hPa SSW 5 km/h 17.2 km/h 95 % 0 mm
02:32 8.2 °C 7.5 °C 1015.1 hPa SW 2.6 km/h 17.2 km/h 95 % 0 mm
02:37 8.1 °C 7.4 °C 1014.8 hPa West 5 km/h 12.2 km/h 95 % 0 mm
02:42 8.1 °C 7.2 °C 1015.1 hPa WSW 3.5 km/h 13.4 km/h 94 % 0 mm
02:47 8.1 °C 7.1 °C 1014.8 hPa WSW 8.7 km/h 15.8 km/h 94 % 0 mm
02:52 7.9 °C 6.9 °C 1015.1 hPa SW 6.1 km/h 17.2 km/h 93 % 0 mm
02:57 7.8 °C 6.6 °C 1015.1 hPa WSW 7.2 km/h 17.2 km/h 92 % 0 mm
03:02 7.8 °C 6.4 °C 1015.1 hPa WSW 7.2 km/h 17.2 km/h 91 % 0 mm
03:07 7.7 °C 6.4 °C 1015.1 hPa SW 2.6 km/h 13.4 km/h 91 % 0 mm
03:12 7.7 °C 6.3 °C 1015.1 hPa SW 5 km/h 13.4 km/h 91 % 0 mm
03:17 7.6 °C 6.2 °C 1015.1 hPa WSW 3.5 km/h 12.2 km/h 91 % 0 mm
03:22 7.4 °C 6.1 °C 1015.1 hPa SW 3.5 km/h 12.2 km/h 91 % 0 mm
03:28 7.3 °C 6 °C 1015.1 hPa Calm   8.7 km/h 91 % 0 mm
03:33 7.2 °C 5.8 °C 1015.1 hPa WSW 2.6 km/h 13.4 km/h 91 % 0 mm
03:38 7.1 °C 5.7 °C 1015.5 hPa WSW 3.5 km/h 13.4 km/h 91 % 0 mm
03:43 7.3 °C 6 °C 1015.5 hPa WNW 2.6 km/h 11.1 km/h 91 % 0 mm
03:48 6.9 °C 5.6 °C 1015.5 hPa West 3.5 km/h 12.2 km/h 91 % 0 mm
03:58 6.8 °C 5.5 °C 1015.5 hPa Calm   12.2 km/h 91 % 0 mm
03:59 6.3 °C 4.9 °C 1015.5 hPa Calm   5 km/h 91 % 0 mm
04:02 6.3 °C 4.9 °C 1015.5 hPa SW 2.6 km/h 5 km/h 91 % 0 mm
04:03 6.7 °C 5.2 °C 1015.5 hPa SW 2.6 km/h 8.7 km/h 90 % 0 mm
04:05 6.3 °C 4.9 °C 1015.5 hPa Calm   5 km/h 91 % 0 mm
04:06 6.3 °C 4.9 °C 1015.5 hPa Calm   5 km/h 91 % 0 mm
04:07 6.3 °C 4.9 °C 1015.5 hPa SW 1.1 km/h 5 km/h 91 % 0 mm
04:08 6.6 °C 5.1 °C 1015.5 hPa Calm   8.7 km/h 90 % 0 mm
04:10 6.2 °C 4.7 °C 1015.5 hPa Calm   5 km/h 90 % 0 mm
04:12 6.2 °C 4.7 °C 1015.8 hPa Calm   5 km/h 90 % 0 mm
04:13 6.4 °C 4.9 °C 1015.8 hPa WSW 1.1 km/h 6.1 km/h 90 % 0 mm
04:16 6.1 °C 4.6 °C 1015.8 hPa SSW 7.2 km/h 17.2 km/h 90 % 0 mm
04:17 6.1 °C 4.6 °C 1015.8 hPa Calm   17.2 km/h 90 % 0 mm
04:18 6.4 °C 4.8 °C 1015.8 hPa Calm   5 km/h 90 % 0 mm
04:23 6.3 °C 4.9 °C 1015.5 hPa SW 1.1 km/h 5 km/h 91 % 0 mm
04:24 5.9 °C 4.4 °C 1015.8 hPa Calm   17.2 km/h 90 % 0 mm
04:26 5.9 °C 4.4 °C 1015.8 hPa Calm   17.2 km/h 90 % 0 mm
04:27 5.8 °C 4.3 °C 1015.8 hPa Calm   5 km/h 90 % 0 mm
04:28 6.3 °C 4.9 °C 1015.5 hPa Calm   5 km/h 91 % 0 mm
04:30 5.8 °C 4.3 °C 1015.8 hPa Calm   5 km/h 90 % 0 mm
04:31 5.7 °C 4.2 °C 1016.1 hPa Calm   5 km/h 90 % 0 mm
04:32 5.7 °C 4.2 °C 1015.8 hPa WNW 2.6 km/h 5 km/h 90 % 0 mm
04:33 6.2 °C 4.8 °C 1015.5 hPa Calm   5 km/h 91 % 0 mm
04:38 6.1 °C 4.6 °C 1015.8 hPa Calm   5 km/h 90 % 0 mm
04:48 5.9 °C 4.4 °C 1015.8 hPa Calm   17.2 km/h 90 % 0 mm
04:53 5.7 °C 4.2 °C 1015.8 hPa Calm   5 km/h 90 % 0 mm
04:58 5.8 °C 4.4 °C 1015.8 hPa WSW 1.1 km/h 11.1 km/h 91 % 0 mm
05:03 5.8 °C 4.3 °C 1016.1 hPa Calm   11.1 km/h 90 % 0 mm
05:08 5.8 °C 4.3 °C 1016.1 hPa WSW 5 km/h 7.2 km/h 90 % 0 mm
05:13 5.9 °C 4.4 °C 1016.1 hPa SW 3.5 km/h 8.7 km/h 90 % 0 mm
05:18 6.1 °C 4.6 °C 1016.1 hPa Calm   14.8 km/h 90 % 0 mm
05:23 6 °C 4.3 °C 1016.1 hPa SW 1.1 km/h 14.8 km/h 89 % 0 mm
05:28 5.9 °C 4.2 °C 1016.1 hPa Calm   7.2 km/h 89 % 0 mm
05:33 5.9 °C 4.2 °C 1016.1 hPa WSW 2.6 km/h 9.7 km/h 89 % 0 mm
05:38 6 °C 4.3 °C 1016.1 hPa West 6.1 km/h 17.2 km/h 89 % 0 mm
05:43 6.2 °C 4.3 °C 1016.1 hPa West 6.1 km/h 17.2 km/h 88 % 0 mm
05:48 6.2 °C 4.3 °C 1016.5 hPa WSW 2.6 km/h 15.8 km/h 88 % 0 mm
05:53 6.2 °C 4.2 °C 1016.5 hPa WSW 3.5 km/h 12.2 km/h 87 % 0 mm
05:58 6.3 °C 4.3 °C 1016.5 hPa West 3.5 km/h 11.1 km/h 87 % 0 mm
06:00 6.2 °C 4.2 °C 1016.8 hPa Calm   5 km/h 87 % 0 mm
06:01 6.2 °C 4.2 °C 1016.8 hPa Calm   3.5 km/h 87 % 0 mm
06:02 6.2 °C 4.2 °C 1016.8 hPa Calm   3.5 km/h 87 % 0 mm
06:03 6.3 °C 4.3 °C 1016.5 hPa Calm   9.7 km/h 87 % 0 mm
06:04 6.2 °C 4.3 °C 1017.2 hPa Calm   3.5 km/h 88 % 0 mm
06:05 6.2 °C 4.3 °C 1017.2 hPa Calm   3.5 km/h 88 % 0 mm
06:06 6.2 °C 4.2 °C 1016.8 hPa Calm   2.6 km/h 87 % 0 mm
06:07 6.2 °C 4.3 °C 1016.8 hPa Calm   2.6 km/h 88 % 0 mm
06:08 6.2 °C 4.2 °C 1016.8 hPa West 2.6 km/h 6.1 km/h 87 % 0 mm
06:09 6.1 °C 4.2 °C 1016.8 hPa Calm   2.6 km/h 88 % 0 mm
06:11 6.1 °C 4.2 °C 1016.8 hPa Calm   2.6 km/h 88 % 0 mm
06:12 6.1 °C 4.2 °C 1016.8 hPa Calm   2.6 km/h 88 % 0 mm
06:13 6.1 °C 4.1 °C 1016.8 hPa West 1.1 km/h 6.1 km/h 87 % 0 mm
06:18 6.1 °C 4.1 °C 1017.2 hPa Calm   5 km/h 87 % 0 mm
06:23 6.2 °C 4.2 °C 1016.8 hPa Calm   3.5 km/h 87 % 0 mm
06:28 6.2 °C 4.2 °C 1016.8 hPa Calm   2.6 km/h 87 % 0 mm
06:33 6.1 °C 4.2 °C 1016.8 hPa Calm   2.6 km/h 88 % 0 mm
06:38 6.1 °C 4.2 °C 1016.8 hPa Calm   2.6 km/h 88 % 0 mm
06:43 6.1 °C 4.2 °C 1017.2 hPa Calm   2.6 km/h 88 % 0 mm
06:48 6.1 °C 4.4 °C 1017.2 hPa Calm   2.6 km/h 89 % 0 mm
06:53 6.2 °C 4.5 °C 1017.2 hPa WSW 2.6 km/h 3.5 km/h 89 % 0 mm
06:58 6.4 °C 4.8 °C 1017.2 hPa West 1.1 km/h 3.5 km/h 90 % 0 mm
07:03 6.6 °C 5.2 °C 1017.2 hPa Calm   3.5 km/h 91 % 0 mm
07:09 6.8 °C 5.5 °C 1017.2 hPa Calm   3.5 km/h 91 % 0 mm
07:14 7.2 °C 5.6 °C 1017.2 hPa WSW 3.5 km/h 8.7 km/h 90 % 0 mm
07:19 7.6 °C 5.8 °C 1017.5 hPa Calm   8.7 km/h 89 % 0 mm
07:24 7.8 °C 6.2 °C 1017.5 hPa West 3.5 km/h 8.7 km/h 89 % 0 mm
07:29 8.1 °C 6.3 °C 1017.8 hPa WNW 2.6 km/h 6.1 km/h 88 % 0 mm
07:34 8.4 °C 6.4 °C 1017.8 hPa Calm   8.7 km/h 87 % 0 mm
07:39 8.7 °C 6.3 °C 1017.8 hPa WSW 2.6 km/h 9.7 km/h 85 % 0 mm
07:44 8.9 °C 6.4 °C 1017.8 hPa SW 7.2 km/h 12.2 km/h 84 % 0 mm
07:49 9 °C 6.3 °C 1017.8 hPa WSW 2.6 km/h 14.8 km/h 83 % 0 mm
07:54 9.2 °C 6.3 °C 1018.2 hPa WSW 6.1 km/h 14.8 km/h 82 % 0 mm
07:59 9.4 °C 6.5 °C 1018.2 hPa Calm   12.2 km/h 82 % 0 mm
08:04 9.6 °C 6.5 °C 1018.2 hPa WNW 2.6 km/h 12.2 km/h 81 % 0 mm
08:09 9.8 °C 6.5 °C 1018.2 hPa West 5 km/h 12.2 km/h 80 % 0 mm
08:19 9.9 °C 5.9 °C 1018.2 hPa WSW 8.7 km/h 18.3 km/h 76 % 0 mm
08:24 9.9 °C 5.7 °C 1018.2 hPa WSW 11.1 km/h 18.3 km/h 75 % 0 mm
08:29 10.1 °C 6.1 °C 1018.5 hPa West 1.1 km/h 17.2 km/h 76 % 0 mm
08:34 10.2 °C 5.8 °C 1018.5 hPa WSW 11.1 km/h 23.3 km/h 74 % 0 mm
08:44 10.3 °C 5.7 °C 1018.8 hPa West 6.1 km/h 19.5 km/h 73 % 0 mm
08:49 10.4 °C 5.8 °C 1018.8 hPa WSW 2.6 km/h 18.3 km/h 73 % 0 mm
08:54 10.7 °C 6.1 °C 1018.8 hPa WSW 8.7 km/h 17.2 km/h 73 % 0 mm
08:59 10.7 °C 5.7 °C 1018.8 hPa West 8.7 km/h 18.3 km/h 71 % 0 mm
09:04 10.8 °C 5.7 °C 1018.8 hPa WNW 2.6 km/h 18.3 km/h 71 % 0 mm
09:09 10.9 °C 5.8 °C 1018.8 hPa West 6.1 km/h 18.3 km/h 71 % 0 mm
09:14 11.3 °C 6.2 °C 1018.5 hPa West 5 km/h 23.3 km/h 71 % 0 mm
09:19 11.3 °C 5.2 °C 1018.8 hPa WSW 15.8 km/h 27 km/h 66 % 0 mm
09:29 11.4 °C 5 °C 1018.8 hPa WSW 13.4 km/h 27 km/h 65 % 0 mm
09:34 11.4 °C 5.1 °C 1018.8 hPa WSW 14.8 km/h 23.3 km/h 65 % 0 mm
09:39 11.3 °C 4.9 °C 1018.8 hPa WSW 7.2 km/h 21.9 km/h 65 % 0 mm
09:44 11.4 °C 5 °C 1018.8 hPa WSW 6.1 km/h 21.9 km/h 65 % 0 mm
09:49 11.7 °C 5.1 °C 1018.8 hPa WSW 12.2 km/h 19.5 km/h 64 % 0 mm
09:54 11.8 °C 4.9 °C 1019.2 hPa WSW 9.7 km/h 24.5 km/h 63 % 0 mm
09:59 11.8 °C 4.5 °C 1018.8 hPa WSW 9.7 km/h 24.5 km/h 61 % 0 mm
10:04 11.8 °C 4.6 °C 1019.2 hPa WSW 14.8 km/h 30.6 km/h 61 % 0.25 mm
10:09 11.9 °C 4.7 °C 1018.8 hPa WSW 8.7 km/h 30.6 km/h 61 % 0.25 mm
Ararat Weather
Compliments of Weather Underground - 1.25 mb
Click here to send mail.


ABOUT

Live weather data from Ararat, Victoria, Australia, 3377
Data uploaded from Cumulus every 5 minutes to Weather Underground.
This site then downloads the raw data for formatting and display.
Metric and imperial data can be displayed. Graphs and historical data available.
Includes Sun and Moon times and rain image live from BOM.

Check out Ararat Weather on Facebook, Twitter and Google +

Help support ongoing costs by checking out the ads





Follow @AraratWeather